sensor_id;sensor_type;location;lat;lon;timestamp;pressure;altitude;pressure_sealevel;temperature;humidity
59435;BME280;45241;49.768;8.636;2023-05-03T00:00:47;101210.66;;;10.89;72.44
59435;BME280;45241;49.768;8.636;2023-05-03T00:03:13;101222.84;;;11.08;71.89
59435;BME280;45241;49.768;8.636;2023-05-03T00:05:38;101219.34;;;10.99;72.40
59435;BME280;45241;49.768;8.636;2023-05-03T00:08:03;101217.72;;;10.74;73.81
59435;BME280;45241;49.768;8.636;2023-05-03T00:10:29;101204.78;;;10.69;74.60
59435;BME280;45241;49.768;8.636;2023-05-03T00:12:55;101204.94;;;10.27;75.64
59435;BME280;45241;49.768;8.636;2023-05-03T00:15:21;101211.16;;;10.44;74.36
59435;BME280;45241;49.768;8.636;2023-05-03T00:17:46;101206.59;;;10.20;75.40
59435;BME280;45241;49.768;8.636;2023-05-03T00:20:11;101209.97;;;10.22;75.25
59435;BME280;45241;49.768;8.636;2023-05-03T00:22:37;101207.66;;;10.35;74.98
59435;BME280;45241;49.768;8.636;2023-05-03T00:25:02;101198.91;;;10.17;75.51
59435;BME280;45241;49.768;8.636;2023-05-03T00:27:28;101197.56;;;10.29;74.59
59435;BME280;45241;49.768;8.636;2023-05-03T00:29:54;101206.47;;;10.46;73.88
59435;BME280;45241;49.768;8.636;2023-05-03T00:32:20;101202.53;;;9.83;75.28
59435;BME280;45241;49.768;8.636;2023-05-03T00:34:53;101194.50;;;10.08;75.38
59435;BME280;45241;49.768;8.636;2023-05-03T00:37:19;101191.81;;;9.91;76.94
59435;BME280;45241;49.768;8.636;2023-05-03T00:39:45;101185.66;;;9.99;77.45
59435;BME280;45241;49.768;8.636;2023-05-03T00:42:10;101187.69;;;10.13;76.56
59435;BME280;45241;49.768;8.636;2023-05-03T00:44:35;101183.31;;;9.96;77.30
59435;BME280;45241;49.768;8.636;2023-05-03T00:47:01;101181.50;;;10.29;73.28
59435;BME280;45241;49.768;8.636;2023-05-03T00:49:26;101180.84;;;10.35;71.77
59435;BME280;45241;49.768;8.636;2023-05-03T00:51:52;101180.16;;;10.25;72.16
59435;BME280;45241;49.768;8.636;2023-05-03T00:54:17;101179.81;;;10.28;73.72
59435;BME280;45241;49.768;8.636;2023-05-03T00:56:44;101165.25;;;10.14;74.86
59435;BME280;45241;49.768;8.636;2023-05-03T00:59:10;101169.06;;;10.04;76.20
59435;BME280;45241;49.768;8.636;2023-05-03T01:01:35;101168.41;;;10.18;74.17
59435;BME280;45241;49.768;8.636;2023-05-03T01:04:02;101156.81;;;9.85;73.60
59435;BME280;45241;49.768;8.636;2023-05-03T01:17:05;101148.00;;;10.09;71.13
59435;BME280;45241;49.768;8.636;2023-05-03T01:19:35;101155.03;;;10.18;72.68
59435;BME280;45241;49.768;8.636;2023-05-03T01:22:30;101154.19;;;10.09;71.74
59435;BME280;45241;49.768;8.636;2023-05-03T01:25:10;101152.50;;;10.16;72.09
59435;BME280;45241;49.768;8.636;2023-05-03T01:27:36;101150.34;;;10.36;72.44
59435;BME280;45241;49.768;8.636;2023-05-03T01:30:07;101149.34;;;10.13;73.35
59435;BME280;45241;49.768;8.636;2023-05-03T01:35:27;101150.66;;;10.33;72.45
59435;BME280;45241;49.768;8.636;2023-05-03T01:37:55;101147.50;;;10.21;74.17
59435;BME280;45241;49.768;8.636;2023-05-03T01:40:22;101141.09;;;10.06;74.18
59435;BME280;45241;49.768;8.636;2023-05-03T01:42:49;101142.47;;;10.18;72.87
59435;BME280;45241;49.768;8.636;2023-05-03T01:45:14;101139.78;;;10.26;73.57
59435;BME280;45241;49.768;8.636;2023-05-03T01:47:40;101127.88;;;9.96;73.25
59435;BME280;45241;49.768;8.636;2023-05-03T01:50:05;101132.41;;;10.20;72.67
59435;BME280;45241;49.768;8.636;2023-05-03T01:52:32;101133.56;;;10.34;72.25
59435;BME280;45241;49.768;8.636;2023-05-03T01:54:57;101130.59;;;10.37;71.75
59435;BME280;45241;49.768;8.636;2023-05-03T01:57:24;101141.09;;;10.47;71.70
59435;BME280;45241;49.768;8.636;2023-05-03T01:59:49;101142.63;;;10.41;72.79
59435;BME280;45241;49.768;8.636;2023-05-03T02:02:14;101135.75;;;10.14;74.57
59435;BME280;45241;49.768;8.636;2023-05-03T02:04:40;101137.44;;;10.23;74.24
59435;BME280;45241;49.768;8.636;2023-05-03T02:07:05;101139.94;;;10.17;73.39
59435;BME280;45241;49.768;8.636;2023-05-03T02:09:30;101135.75;;;10.31;72.80
59435;BME280;45241;49.768;8.636;2023-05-03T02:11:56;101145.00;;;10.36;72.30
59435;BME280;45241;49.768;8.636;2023-05-03T02:14:21;101149.66;;;10.42;72.01
59435;BME280;45241;49.768;8.636;2023-05-03T02:16:46;101153.69;;;10.38;72.44
59435;BME280;45241;49.768;8.636;2023-05-03T02:19:12;101149.16;;;10.31;74.30
59435;BME280;45241;49.768;8.636;2023-05-03T02:21:37;101151.81;;;9.90;76.19
59435;BME280;45241;49.768;8.636;2023-05-03T02:24:03;101150.56;;;9.60;77.20
59435;BME280;45241;49.768;8.636;2023-05-03T02:26:29;101149.50;;;9.45;77.38
59435;BME280;45241;49.768;8.636;2023-05-03T02:28:54;101153.06;;;9.61;75.85
59435;BME280;45241;49.768;8.636;2023-05-03T02:31:23;101152.31;;;9.85;74.59
59435;BME280;45241;49.768;8.636;2023-05-03T02:33:48;101153.66;;;9.89;75.55
59435;BME280;45241;49.768;8.636;2023-05-03T02:36:14;101152.78;;;9.81;74.81
59435;BME280;45241;49.768;8.636;2023-05-03T02:38:39;101160.69;;;9.90;74.78
59435;BME280;45241;49.768;8.636;2023-05-03T02:41:05;101157.66;;;9.85;74.74
59435;BME280;45241;49.768;8.636;2023-05-03T02:43:30;101157.31;;;9.88;75.49
59435;BME280;45241;49.768;8.636;2023-05-03T02:45:55;101163.59;;;9.55;76.04
59435;BME280;45241;49.768;8.636;2023-05-03T02:48:21;101163.25;;;9.50;76.16
59435;BME280;45241;49.768;8.636;2023-05-03T02:50:46;101163.00;;;9.77;74.10
59435;BME280;45241;49.768;8.636;2023-05-03T02:53:12;101161.31;;;9.42;74.56
59435;BME280;45241;49.768;8.636;2023-05-03T02:55:38;101172.69;;;9.36;74.30
59435;BME280;45241;49.768;8.636;2023-05-03T02:58:03;101166.50;;;9.35;76.05
59435;BME280;45241;49.768;8.636;2023-05-03T03:00:29;101174.41;;;9.11;76.83
59435;BME280;45241;49.768;8.636;2023-05-03T03:02:54;101169.88;;;9.12;76.46
59435;BME280;45241;49.768;8.636;2023-05-03T03:05:19;101166.28;;;8.95;77.26
59435;BME280;45241;49.768;8.636;2023-05-03T03:07:45;101168.00;;;9.04;78.43
59435;BME280;45241;49.768;8.636;2023-05-03T03:10:10;101164.13;;;8.98;77.63
59435;BME280;45241;49.768;8.636;2023-05-03T03:12:36;101156.25;;;9.23;76.14
59435;BME280;45241;49.768;8.636;2023-05-03T03:15:02;101160.84;;;9.04;77.12
59435;BME280;45241;49.768;8.636;2023-05-03T03:17:28;101161.41;;;8.90;76.44
59435;BME280;45241;49.768;8.636;2023-05-03T03:19:53;101168.28;;;8.93;77.92
59435;BME280;45241;49.768;8.636;2023-05-03T03:22:19;101161.13;;;9.01;76.59
59435;BME280;45241;49.768;8.636;2023-05-03T03:24:44;101170.22;;;8.83;76.56
59435;BME280;45241;49.768;8.636;2023-05-03T03:27:10;101167.81;;;8.97;76.06
59435;BME280;45241;49.768;8.636;2023-05-03T03:29:35;101166.63;;;8.92;77.83
59435;BME280;45241;49.768;8.636;2023-05-03T03:32:00;101166.03;;;8.80;78.37
59435;BME280;45241;49.768;8.636;2023-05-03T03:34:25;101164.06;;;8.64;78.64
59435;BME280;45241;49.768;8.636;2023-05-03T03:36:51;101165.19;;;8.79;77.90
59435;BME280;45241;49.768;8.636;2023-05-03T03:39:16;101165.03;;;8.81;77.74
59435;BME280;45241;49.768;8.636;2023-05-03T03:41:42;101158.25;;;8.69;77.94
59435;BME280;45241;49.768;8.636;2023-05-03T03:44:07;101158.00;;;8.80;77.56
59435;BME280;45241;49.768;8.636;2023-05-03T03:46:33;101172.06;;;8.82;77.73
59435;BME280;45241;49.768;8.636;2023-05-03T03:48:58;101159.25;;;8.68;78.06
59435;BME280;45241;49.768;8.636;2023-05-03T03:51:24;101156.47;;;8.77;77.02
59435;BME280;45241;49.768;8.636;2023-05-03T03:53:50;101150.59;;;8.74;78.16
59435;BME280;45241;49.768;8.636;2023-05-03T03:56:15;101151.94;;;8.70;77.82
59435;BME280;45241;49.768;8.636;2023-05-03T03:58:41;101150.75;;;8.46;79.31
59435;BME280;45241;49.768;8.636;2023-05-03T04:01:06;101152.00;;;8.16;80.60
59435;BME280;45241;49.768;8.636;2023-05-03T04:03:31;101145.13;;;7.96;81.95
59435;BME280;45241;49.768;8.636;2023-05-03T04:05:57;101152.00;;;8.16;80.87
59435;BME280;45241;49.768;8.636;2023-05-03T04:08:22;101155.34;;;8.18;80.18
59435;BME280;45241;49.768;8.636;2023-05-03T04:10:48;101157.25;;;8.08;80.33
59435;BME280;45241;49.768;8.636;2023-05-03T04:13:13;101154.44;;;8.10;80.24
59435;BME280;45241;49.768;8.636;2023-05-03T04:15:38;101162.91;;;8.23;79.71
59435;BME280;45241;49.768;8.636;2023-05-03T04:18:04;101165.56;;;8.23;79.36
59435;BME280;45241;49.768;8.636;2023-05-03T04:20:30;101166.13;;;8.27;79.09
59435;BME280;45241;49.768;8.636;2023-05-03T04:22:57;101164.72;;;8.23;78.86
59435;BME280;45241;49.768;8.636;2023-05-03T04:25:22;101167.34;;;8.32;78.80
59435;BME280;45241;49.768;8.636;2023-05-03T04:27:48;101172.16;;;8.29;78.99
59435;BME280;45241;49.768;8.636;2023-05-03T04:30:13;101166.13;;;8.27;79.76
59435;BME280;45241;49.768;8.636;2023-05-03T04:32:40;101171.00;;;7.96;81.08
59435;BME280;45241;49.768;8.636;2023-05-03T04:35:07;101171.38;;;8.18;79.81
59435;BME280;45241;49.768;8.636;2023-05-03T04:37:33;101171.53;;;8.35;79.50
59435;BME280;45241;49.768;8.636;2023-05-03T04:39:59;101171.91;;;8.40;78.66
59435;BME280;45241;49.768;8.636;2023-05-03T04:42:24;101178.88;;;8.15;79.57
59435;BME280;45241;49.768;8.636;2023-05-03T04:44:51;101165.88;;;8.20;79.21
59435;BME280;45241;49.768;8.636;2023-05-03T04:47:16;101174.22;;;8.17;81.04
59435;BME280;45241;49.768;8.636;2023-05-03T04:49:42;101171.97;;;8.12;81.66
59435;BME280;45241;49.768;8.636;2023-05-03T04:52:07;101177.09;;;8.41;79.44
59435;BME280;45241;49.768;8.636;2023-05-03T04:54:34;101181.38;;;8.34;79.85
59435;BME280;45241;49.768;8.636;2023-05-03T04:57:00;101182.72;;;8.38;79.46
59435;BME280;45241;49.768;8.636;2023-05-03T04:59:25;101187.59;;;8.61;78.30
59435;BME280;45241;49.768;8.636;2023-05-03T05:01:50;101186.16;;;8.66;79.27
59435;BME280;45241;49.768;8.636;2023-05-03T05:04:16;101190.56;;;9.01;79.12
59435;BME280;45241;49.768;8.636;2023-05-03T05:06:41;101195.38;;;8.98;79.73
59435;BME280;45241;49.768;8.636;2023-05-03T05:09:19;101200.41;;;9.01;79.16
59435;BME280;45241;49.768;8.636;2023-05-03T05:11:45;101194.47;;;9.15;78.86
59435;BME280;45241;49.768;8.636;2023-05-03T05:14:10;101201.47;;;9.08;77.81
59435;BME280;45241;49.768;8.636;2023-05-03T05:16:36;101193.78;;;9.05;78.23
59435;BME280;45241;49.768;8.636;2023-05-03T05:19:01;101188.66;;;9.46;77.00
59435;BME280;45241;49.768;8.636;2023-05-03T05:21:28;101192.41;;;9.61;77.94
59435;BME280;45241;49.768;8.636;2023-05-03T05:23:53;101194.75;;;9.64;77.07
59435;BME280;45241;49.768;8.636;2023-05-03T05:26:18;101194.91;;;9.62;76.54
59435;BME280;45241;49.768;8.636;2023-05-03T05:28:44;101196.47;;;9.81;76.66
59435;BME280;45241;49.768;8.636;2023-05-03T05:31:09;101191.97;;;9.90;75.09
59435;BME280;45241;49.768;8.636;2023-05-03T05:33:35;101197.66;;;9.87;75.43
59435;BME280;45241;49.768;8.636;2023-05-03T05:36:00;101200.19;;;9.88;76.13
59435;BME280;45241;49.768;8.636;2023-05-03T05:38:25;101196.00;;;9.94;74.95
59435;BME280;45241;49.768;8.636;2023-05-03T05:40:52;101194.53;;;10.00;74.76
59435;BME280;45241;49.768;8.636;2023-05-03T05:43:17;101198.88;;;10.01;74.17
59435;BME280;45241;49.768;8.636;2023-05-03T05:45:42;101196.88;;;10.11;74.10
59435;BME280;45241;49.768;8.636;2023-05-03T05:48:08;101193.69;;;10.07;73.80
59435;BME280;45241;49.768;8.636;2023-05-03T05:50:33;101199.25;;;10.30;73.21
59435;BME280;45241;49.768;8.636;2023-05-03T05:52:58;101199.56;;;10.19;73.03
59435;BME280;45241;49.768;8.636;2023-05-03T05:55:24;101199.75;;;10.25;72.80
59435;BME280;45241;49.768;8.636;2023-05-03T05:57:49;101198.75;;;10.43;72.57
59435;BME280;45241;49.768;8.636;2023-05-03T06:00:15;101188.72;;;10.37;71.97
59435;BME280;45241;49.768;8.636;2023-05-03T06:02:41;101186.19;;;10.51;71.95
59435;BME280;45241;49.768;8.636;2023-05-03T06:05:07;101183.50;;;10.43;72.04
59435;BME280;45241;49.768;8.636;2023-05-03T06:07:33;101185.34;;;10.59;71.11
59435;BME280;45241;49.768;8.636;2023-05-03T06:09:58;101187.84;;;10.85;69.59
59435;BME280;45241;49.768;8.636;2023-05-03T06:12:24;101174.41;;;10.93;69.53
59435;BME280;45241;49.768;8.636;2023-05-03T06:14:49;101181.31;;;10.88;69.99
59435;BME280;45241;49.768;8.636;2023-05-03T06:17:14;101182.16;;;10.88;69.97
59435;BME280;45241;49.768;8.636;2023-05-03T06:19:40;101181.47;;;10.86;69.78
59435;BME280;45241;49.768;8.636;2023-05-03T06:22:06;101180.28;;;10.97;70.29
59435;BME280;45241;49.768;8.636;2023-05-03T06:24:31;101182.91;;;11.21;69.36
59435;BME280;45241;49.768;8.636;2023-05-03T06:26:57;101178.00;;;11.41;68.67
59435;BME280;45241;49.768;8.636;2023-05-03T06:29:23;101173.22;;;11.59;69.08
59435;BME280;45241;49.768;8.636;2023-05-03T06:31:48;101172.66;;;11.41;68.44
59435;BME280;45241;49.768;8.636;2023-05-03T06:34:18;101171.13;;;11.30;68.37
59435;BME280;45241;49.768;8.636;2023-05-03T06:36:44;101172.69;;;11.64;68.18
59435;BME280;45241;49.768;8.636;2023-05-03T06:39:09;101164.69;;;11.56;68.39
59435;BME280;45241;49.768;8.636;2023-05-03T06:41:35;101156.91;;;11.69;68.21
59435;BME280;45241;49.768;8.636;2023-05-03T06:44:00;101158.75;;;11.68;67.35
59435;BME280;45241;49.768;8.636;2023-05-03T06:46:26;101155.66;;;11.80;68.72
59435;BME280;45241;49.768;8.636;2023-05-03T06:48:52;101161.53;;;11.83;68.49
59435;BME280;45241;49.768;8.636;2023-05-03T06:51:21;101172.16;;;11.99;67.14
59435;BME280;45241;49.768;8.636;2023-05-03T06:53:51;101176.41;;;11.94;67.68
59435;BME280;45241;49.768;8.636;2023-05-03T06:56:17;101178.63;;;12.36;67.92
59435;BME280;45241;49.768;8.636;2023-05-03T06:58:42;101172.41;;;12.13;67.40
59435;BME280;45241;49.768;8.636;2023-05-03T07:01:07;101172.28;;;12.29;67.48
59435;BME280;45241;49.768;8.636;2023-05-03T07:03:33;101177.28;;;12.55;67.88
59435;BME280;45241;49.768;8.636;2023-05-03T07:05:58;101176.94;;;12.58;67.62
59435;BME280;45241;49.768;8.636;2023-05-03T07:08:23;101184.06;;;12.88;67.02
59435;BME280;45241;49.768;8.636;2023-05-03T07:10:49;101179.09;;;13.00;65.86
59435;BME280;45241;49.768;8.636;2023-05-03T07:13:14;101177.06;;;13.17;66.36
59435;BME280;45241;49.768;8.636;2023-05-03T07:15:39;101178.38;;;13.21;66.28
59435;BME280;45241;49.768;8.636;2023-05-03T07:18:05;101164.88;;;13.06;67.25
59435;BME280;45241;49.768;8.636;2023-05-03T07:20:30;101176.03;;;13.33;67.22
59435;BME280;45241;49.768;8.636;2023-05-03T07:22:56;101172.59;;;13.24;65.36
59435;BME280;45241;49.768;8.636;2023-05-03T07:25:22;101165.97;;;13.56;66.94
59435;BME280;45241;49.768;8.636;2023-05-03T07:27:47;101170.25;;;13.06;65.67
59435;BME280;45241;49.768;8.636;2023-05-03T07:30:13;101169.34;;;13.94;67.04
59435;BME280;45241;49.768;8.636;2023-05-03T07:32:38;101176.00;;;14.56;66.13
59435;BME280;45241;49.768;8.636;2023-05-03T07:35:04;101163.41;;;14.42;65.43
59435;BME280;45241;49.768;8.636;2023-05-03T07:37:31;101155.66;;;13.96;65.09
59435;BME280;45241;49.768;8.636;2023-05-03T07:39:56;101161.53;;;13.99;64.32
59435;BME280;45241;49.768;8.636;2023-05-03T07:42:22;101164.88;;;14.44;68.04
59435;BME280;45241;49.768;8.636;2023-05-03T07:44:47;101160.31;;;14.45;63.34
59435;BME280;45241;49.768;8.636;2023-05-03T07:47:12;101154.94;;;14.45;63.59
59435;BME280;45241;49.768;8.636;2023-05-03T07:49:37;101158.25;;;14.47;63.95
59435;BME280;45241;49.768;8.636;2023-05-03T07:52:03;101162.63;;;14.48;64.76
59435;BME280;45241;49.768;8.636;2023-05-03T07:54:28;101166.28;;;14.61;63.80
59435;BME280;45241;49.768;8.636;2023-05-03T07:56:55;101161.03;;;14.32;63.62
59435;BME280;45241;49.768;8.636;2023-05-03T07:59:20;101175.88;;;15.26;69.36
59435;BME280;45241;49.768;8.636;2023-05-03T08:01:45;101171.97;;;14.73;63.84
59435;BME280;45241;49.768;8.636;2023-05-03T08:04:11;101168.41;;;14.94;63.22
59435;BME280;45241;49.768;8.636;2023-05-03T08:06:36;101167.19;;;15.03;62.98
59435;BME280;45241;49.768;8.636;2023-05-03T08:09:03;101163.63;;;15.65;62.11
59435;BME280;45241;49.768;8.636;2023-05-03T08:11:29;101156.97;;;15.61;63.25
59435;BME280;45241;49.768;8.636;2023-05-03T08:13:54;101155.88;;;16.30;63.46
59435;BME280;45241;49.768;8.636;2023-05-03T08:16:20;101157.47;;;15.91;60.29
59435;BME280;45241;49.768;8.636;2023-05-03T08:18:45;101155.56;;;15.72;62.26
59435;BME280;45241;49.768;8.636;2023-05-03T08:21:11;101140.81;;;15.94;62.51
59435;BME280;45241;49.768;8.636;2023-05-03T08:23:38;101140.03;;;16.07;63.30
59435;BME280;45241;49.768;8.636;2023-05-03T08:26:04;101139.38;;;15.92;61.78
59435;BME280;45241;49.768;8.636;2023-05-03T08:28:31;101155.59;;;15.92;61.70
59435;BME280;45241;49.768;8.636;2023-05-03T08:30:57;101155.09;;;15.62;62.82
59435;BME280;45241;49.768;8.636;2023-05-03T08:33:22;101157.91;;;15.95;64.27
59435;BME280;45241;49.768;8.636;2023-05-03T08:35:47;101147.56;;;16.51;62.33
59435;BME280;45241;49.768;8.636;2023-05-03T08:38:13;101149.81;;;16.01;62.14
59435;BME280;45241;49.768;8.636;2023-05-03T08:40:39;101149.84;;;16.08;59.89
59435;BME280;45241;49.768;8.636;2023-05-03T08:43:09;101149.81;;;16.01;62.59
59435;BME280;45241;49.768;8.636;2023-05-03T08:45:34;101156.22;;;15.87;60.85
59435;BME280;45241;49.768;8.636;2023-05-03T08:48:00;101144.47;;;16.48;61.08
59435;BME280;45241;49.768;8.636;2023-05-03T08:50:28;101154.22;;;16.42;59.79
59435;BME280;45241;49.768;8.636;2023-05-03T08:52:54;101152.97;;;16.25;59.92
59435;BME280;45241;49.768;8.636;2023-05-03T08:55:20;101157.78;;;16.69;61.91
59435;BME280;45241;49.768;8.636;2023-05-03T08:57:45;101155.06;;;16.42;61.25
59435;BME280;45241;49.768;8.636;2023-05-03T09:00:11;101150.31;;;16.78;61.88
59435;BME280;45241;49.768;8.636;2023-05-03T09:02:37;101159.47;;;16.70;60.42
59435;BME280;45241;49.768;8.636;2023-05-03T09:08:10;101158.38;;;16.97;58.48
59435;BME280;45241;49.768;8.636;2023-05-03T09:10:37;101155.91;;;16.83;58.51
59435;BME280;45241;49.768;8.636;2023-05-03T09:13:04;101152.44;;;17.53;61.61
59435;BME280;45241;49.768;8.636;2023-05-03T09:15:30;101156.19;;;17.46;58.72
59435;BME280;45241;49.768;8.636;2023-05-03T09:20:35;101144.50;;;17.52;57.07
59435;BME280;45241;49.768;8.636;2023-05-03T09:23:01;101159.94;;;17.51;57.92
59435;BME280;45241;49.768;8.636;2023-05-03T09:25:47;101159.22;;;17.69;57.74
59435;BME280;45241;49.768;8.636;2023-05-03T09:28:13;101167.94;;;17.91;57.29
59435;BME280;45241;49.768;8.636;2023-05-03T09:30:40;101149.38;;;17.75;57.00
59435;BME280;45241;49.768;8.636;2023-05-03T09:33:06;101147.00;;;17.53;58.19
59435;BME280;45241;49.768;8.636;2023-05-03T09:35:32;101149.22;;;17.63;57.31
59435;BME280;45241;49.768;8.636;2023-05-03T09:37:58;101150.28;;;17.69;56.29
59435;BME280;45241;49.768;8.636;2023-05-03T09:40:24;101142.19;;;18.00;55.37
59435;BME280;45241;49.768;8.636;2023-05-03T09:43:12;101142.03;;;17.95;54.46
59435;BME280;45241;49.768;8.636;2023-05-03T09:45:38;101135.84;;;18.13;55.49
59435;BME280;45241;49.768;8.636;2023-05-03T09:48:05;101144.09;;;18.56;55.79
59435;BME280;45241;49.768;8.636;2023-05-03T09:50:32;101129.06;;;17.97;55.39
59435;BME280;45241;49.768;8.636;2023-05-03T09:53:00;101136.06;;;18.43;57.78
59435;BME280;45241;49.768;8.636;2023-05-03T09:55:27;101124.38;;;17.73;54.74
59435;BME280;45241;49.768;8.636;2023-05-03T09:57:54;101130.84;;;18.16;55.75
59435;BME280;45241;49.768;8.636;2023-05-03T10:00:19;101132.06;;;18.20;55.92
59435;BME280;45241;49.768;8.636;2023-05-03T10:02:47;101124.88;;;18.33;56.00
59435;BME280;45241;49.768;8.636;2023-05-03T10:05:15;101124.06;;;18.26;53.98
59435;BME280;45241;49.768;8.636;2023-05-03T10:07:43;101121.03;;;18.40;55.08
59435;BME280;45241;49.768;8.636;2023-05-03T10:10:09;101125.41;;;18.91;54.46
59435;BME280;45241;49.768;8.636;2023-05-03T10:12:35;101125.34;;;19.16;54.79
59435;BME280;45241;49.768;8.636;2023-05-03T10:15:04;101113.56;;;18.86;54.01
59435;BME280;45241;49.768;8.636;2023-05-03T10:17:34;101115.22;;;19.05;55.58
59435;BME280;45241;49.768;8.636;2023-05-03T10:20:11;101115.84;;;19.07;55.65
59435;BME280;45241;49.768;8.636;2023-05-03T10:25:30;101106.78;;;19.31;55.69
59435;BME280;45241;49.768;8.636;2023-05-03T10:28:06;101102.53;;;18.81;54.57
59435;BME280;45241;49.768;8.636;2023-05-03T10:30:34;101100.91;;;19.34;53.60
59435;BME280;45241;49.768;8.636;2023-05-03T10:35:38;101096.00;;;19.25;52.41
59435;BME280;45241;49.768;8.636;2023-05-03T10:38:13;101094.13;;;19.55;53.05
59435;BME280;45241;49.768;8.636;2023-05-03T10:40:42;101102.97;;;18.53;51.68
59435;BME280;45241;49.768;8.636;2023-05-03T10:48:24;101087.84;;;20.03;50.93
59435;BME280;45241;49.768;8.636;2023-05-03T10:50:50;101096.94;;;20.50;51.49
59435;BME280;45241;49.768;8.636;2023-05-03T10:56:18;101094.97;;;20.16;51.44
59435;BME280;45241;49.768;8.636;2023-05-03T10:58:46;101083.09;;;20.10;50.60
59435;BME280;45241;49.768;8.636;2023-05-03T11:01:13;101088.00;;;19.12;49.78
59435;BME280;45241;49.768;8.636;2023-05-03T11:06:35;101082.41;;;19.73;52.71
59435;BME280;45241;49.768;8.636;2023-05-03T11:09:06;101088.97;;;20.37;52.13
59435;BME280;45241;49.768;8.636;2023-05-03T11:11:33;101081.41;;;20.39;49.77
59435;BME280;45241;49.768;8.636;2023-05-03T11:13:58;101071.94;;;20.53;49.82
59435;BME280;45241;49.768;8.636;2023-05-03T11:16:24;101073.22;;;20.63;48.35
59435;BME280;45241;49.768;8.636;2023-05-03T11:18:50;101072.03;;;20.59;48.89
59435;BME280;45241;49.768;8.636;2023-05-03T11:21:16;101072.19;;;20.64;49.60
59435;BME280;45241;49.768;8.636;2023-05-03T11:23:42;101057.00;;;20.91;48.89
59435;BME280;45241;49.768;8.636;2023-05-03T11:26:08;101055.72;;;21.34;50.16
59435;BME280;45241;49.768;8.636;2023-05-03T11:28:36;101055.56;;;21.00;48.37
59435;BME280;45241;49.768;8.636;2023-05-03T11:31:02;101052.38;;;21.43;47.23
59435;BME280;45241;49.768;8.636;2023-05-03T11:33:28;101053.78;;;20.36;48.92
59435;BME280;45241;49.768;8.636;2023-05-03T11:35:56;101050.56;;;21.09;49.33
59435;BME280;45241;49.768;8.636;2023-05-03T11:38:21;101048.13;;;21.36;49.72
59435;BME280;45241;49.768;8.636;2023-05-03T11:40:46;101047.34;;;21.52;47.65
59435;BME280;45241;49.768;8.636;2023-05-03T11:43:11;101043.91;;;21.17;48.96
59435;BME280;45241;49.768;8.636;2023-05-03T11:48:03;101041.56;;;21.08;47.77
59435;BME280;45241;49.768;8.636;2023-05-03T11:50:50;101040.50;;;21.95;47.02
59435;BME280;45241;49.768;8.636;2023-05-03T11:53:18;101033.13;;;21.10;47.45
59435;BME280;45241;49.768;8.636;2023-05-03T11:55:45;101030.22;;;21.68;46.56
59435;BME280;45241;49.768;8.636;2023-05-03T11:58:15;101034.91;;;21.56;45.50
59435;BME280;45241;49.768;8.636;2023-05-03T12:00:55;101030.16;;;21.11;45.27
59435;BME280;45241;49.768;8.636;2023-05-03T12:03:25;101037.38;;;21.58;45.32
59435;BME280;45241;49.768;8.636;2023-05-03T12:05:52;101034.75;;;21.80;45.52
59435;BME280;45241;49.768;8.636;2023-05-03T12:08:35;101028.59;;;22.01;47.09
59435;BME280;45241;49.768;8.636;2023-05-03T12:11:00;101023.84;;;21.23;45.56
59435;BME280;45241;49.768;8.636;2023-05-03T12:13:31;101030.56;;;22.06;45.38
59435;BME280;45241;49.768;8.636;2023-05-03T12:16:00;101026.75;;;21.90;44.10
59435;BME280;45241;49.768;8.636;2023-05-03T12:18:26;101022.34;;;22.73;43.22
59435;BME280;45241;49.768;8.636;2023-05-03T12:20:56;101025.03;;;22.51;43.66
59435;BME280;45241;49.768;8.636;2023-05-03T12:23:23;101012.03;;;21.91;45.48
59435;BME280;45241;49.768;8.636;2023-05-03T12:25:49;101007.72;;;22.28;44.45
59435;BME280;45241;49.768;8.636;2023-05-03T12:28:18;101000.13;;;22.14;44.40
59435;BME280;45241;49.768;8.636;2023-05-03T12:30:43;100998.13;;;22.43;42.71
59435;BME280;45241;49.768;8.636;2023-05-03T12:33:09;100995.81;;;21.67;43.32
59435;BME280;45241;49.768;8.636;2023-05-03T12:35:34;100994.78;;;22.36;43.66
59435;BME280;45241;49.768;8.636;2023-05-03T12:38:00;100985.56;;;22.25;42.56
59435;BME280;45241;49.768;8.636;2023-05-03T12:40:28;100988.22;;;23.19;42.97
59435;BME280;45241;49.768;8.636;2023-05-03T12:42:54;100990.34;;;22.35;43.59
59435;BME280;45241;49.768;8.636;2023-05-03T12:45:20;100986.84;;;23.43;42.97
59435;BME280;45241;49.768;8.636;2023-05-03T12:47:45;100984.19;;;23.05;42.93
59435;BME280;45241;49.768;8.636;2023-05-03T12:50:11;100987.97;;;23.21;41.61
59435;BME280;45241;49.768;8.636;2023-05-03T12:52:36;100978.94;;;23.47;41.44
59435;BME280;45241;49.768;8.636;2023-05-03T12:55:03;100988.03;;;23.04;41.68
59435;BME280;45241;49.768;8.636;2023-05-03T12:57:29;100990.16;;;22.58;42.95
59435;BME280;45241;49.768;8.636;2023-05-03T12:59:55;100983.88;;;22.79;41.94
59435;BME280;45241;49.768;8.636;2023-05-03T13:02:21;100981.47;;;23.27;40.93
59435;BME280;45241;49.768;8.636;2023-05-03T13:04:46;100991.63;;;23.09;43.68
59435;BME280;45241;49.768;8.636;2023-05-03T13:07:14;100981.56;;;24.70;39.91
59435;BME280;45241;49.768;8.636;2023-05-03T13:09:40;100974.66;;;23.29;39.54
59435;BME280;45241;49.768;8.636;2023-05-03T13:12:05;100963.34;;;23.47;40.29
59435;BME280;45241;49.768;8.636;2023-05-03T13:14:30;100963.94;;;22.79;40.07
59435;BME280;45241;49.768;8.636;2023-05-03T13:16:56;100957.72;;;23.59;40.46
59435;BME280;45241;49.768;8.636;2023-05-03T13:19:24;100946.19;;;24.26;39.23
59435;BME280;45241;49.768;8.636;2023-05-03T13:21:50;100942.91;;;24.77;39.51
59435;BME280;45241;49.768;8.636;2023-05-03T13:24:15;100943.63;;;25.30;38.79
59435;BME280;45241;49.768;8.636;2023-05-03T13:26:40;100934.53;;;25.14;38.60